sensor_id;sensor_type;location;lat;lon;timestamp;P1;durP1;ratioP1;P2;durP2;ratioP2
22435;SDS011;11385;50.822;4.324;2024-03-08T00:01:54;24.15;;;11.90;;
22435;SDS011;11385;50.822;4.324;2024-03-08T00:04:20;23.50;;;10.25;;
22435;SDS011;11385;50.822;4.324;2024-03-08T00:06:47;22.48;;;10.98;;
22435;SDS011;11385;50.822;4.324;2024-03-08T00:09:13;20.23;;;10.15;;
22435;SDS011;11385;50.822;4.324;2024-03-08T00:11:41;21.20;;;11.28;;
22435;SDS011;11385;50.822;4.324;2024-03-08T00:14:08;20.12;;;10.13;;
22435;SDS011;11385;50.822;4.324;2024-03-08T00:16:34;21.35;;;10.63;;
22435;SDS011;11385;50.822;4.324;2024-03-08T00:19:02;21.02;;;10.72;;
22435;SDS011;11385;50.822;4.324;2024-03-08T00:21:29;21.62;;;9.60;;
22435;SDS011;11385;50.822;4.324;2024-03-08T00:23:57;19.15;;;10.65;;
22435;SDS011;11385;50.822;4.324;2024-03-08T00:26:23;20.90;;;10.90;;
22435;SDS011;11385;50.822;4.324;2024-03-08T00:28:50;22.77;;;10.13;;
22435;SDS011;11385;50.822;4.324;2024-03-08T00:31:16;21.48;;;11.05;;
22435;SDS011;11385;50.822;4.324;2024-03-08T00:33:43;19.82;;;10.30;;
22435;SDS011;11385;50.822;4.324;2024-03-08T00:36:10;19.57;;;9.85;;
22435;SDS011;11385;50.822;4.324;2024-03-08T00:38:36;20.55;;;9.80;;
22435;SDS011;11385;50.822;4.324;2024-03-08T00:41:03;19.77;;;9.83;;
22435;SDS011;11385;50.822;4.324;2024-03-08T00:43:30;21.73;;;10.43;;
22435;SDS011;11385;50.822;4.324;2024-03-08T00:45:57;22.62;;;10.03;;
22435;SDS011;11385;50.822;4.324;2024-03-08T00:48:23;19.12;;;11.22;;
22435;SDS011;11385;50.822;4.324;2024-03-08T00:50:50;20.32;;;10.05;;
22435;SDS011;11385;50.822;4.324;2024-03-08T00:53:17;24.02;;;11.35;;
22435;SDS011;11385;50.822;4.324;2024-03-08T00:55:44;19.90;;;11.10;;
22435;SDS011;11385;50.822;4.324;2024-03-08T00:58:12;21.52;;;10.55;;
22435;SDS011;11385;50.822;4.324;2024-03-08T01:00:39;21.02;;;10.88;;
22435;SDS011;11385;50.822;4.324;2024-03-08T01:03:06;22.40;;;10.88;;
22435;SDS011;11385;50.822;4.324;2024-03-08T01:05:33;21.52;;;11.63;;
22435;SDS011;11385;50.822;4.324;2024-03-08T01:08:00;22.13;;;10.53;;
22435;SDS011;11385;50.822;4.324;2024-03-08T01:10:29;24.52;;;10.65;;
22435;SDS011;11385;50.822;4.324;2024-03-08T01:12:55;21.42;;;10.78;;
22435;SDS011;11385;50.822;4.324;2024-03-08T01:15:23;18.90;;;10.00;;
22435;SDS011;11385;50.822;4.324;2024-03-08T01:17:49;23.75;;;11.95;;
22435;SDS011;11385;50.822;4.324;2024-03-08T01:20:16;20.80;;;10.98;;
22435;SDS011;11385;50.822;4.324;2024-03-08T01:22:43;25.35;;;11.70;;
22435;SDS011;11385;50.822;4.324;2024-03-08T01:25:10;21.27;;;10.93;;
22435;SDS011;11385;50.822;4.324;2024-03-08T01:27:36;20.77;;;10.45;;
22435;SDS011;11385;50.822;4.324;2024-03-08T01:30:03;20.05;;;10.80;;
22435;SDS011;11385;50.822;4.324;2024-03-08T01:32:30;19.95;;;10.38;;
22435;SDS011;11385;50.822;4.324;2024-03-08T01:34:58;24.60;;;10.90;;
22435;SDS011;11385;50.822;4.324;2024-03-08T01:37:24;22.95;;;11.20;;
22435;SDS011;11385;50.822;4.324;2024-03-08T01:39:51;22.55;;;10.58;;
22435;SDS011;11385;50.822;4.324;2024-03-08T01:42:18;20.95;;;11.20;;
22435;SDS011;11385;50.822;4.324;2024-03-08T01:44:44;19.87;;;10.68;;
22435;SDS011;11385;50.822;4.324;2024-03-08T01:47:11;21.77;;;11.12;;
22435;SDS011;11385;50.822;4.324;2024-03-08T01:49:38;21.33;;;11.15;;
22435;SDS011;11385;50.822;4.324;2024-03-08T01:52:05;20.92;;;11.50;;
22435;SDS011;11385;50.822;4.324;2024-03-08T01:54:32;23.38;;;11.50;;
22435;SDS011;11385;50.822;4.324;2024-03-08T01:56:59;20.27;;;11.28;;
22435;SDS011;11385;50.822;4.324;2024-03-08T01:59:26;24.63;;;12.40;;
22435;SDS011;11385;50.822;4.324;2024-03-08T02:01:55;20.97;;;11.40;;
22435;SDS011;11385;50.822;4.324;2024-03-08T02:04:24;23.27;;;11.60;;
22435;SDS011;11385;50.822;4.324;2024-03-08T02:06:51;23.27;;;11.53;;
22435;SDS011;11385;50.822;4.324;2024-03-08T02:09:18;20.85;;;11.93;;
22435;SDS011;11385;50.822;4.324;2024-03-08T02:11:44;19.05;;;11.65;;
22435;SDS011;11385;50.822;4.324;2024-03-08T02:14:12;21.33;;;12.00;;
22435;SDS011;11385;50.822;4.324;2024-03-08T02:16:39;24.92;;;12.78;;
22435;SDS011;11385;50.822;4.324;2024-03-08T02:19:06;20.70;;;11.33;;
22435;SDS011;11385;50.822;4.324;2024-03-08T02:21:35;23.10;;;12.35;;
22435;SDS011;11385;50.822;4.324;2024-03-08T02:24:04;22.82;;;11.55;;
22435;SDS011;11385;50.822;4.324;2024-03-08T02:26:31;25.77;;;12.50;;
22435;SDS011;11385;50.822;4.324;2024-03-08T02:28:58;21.90;;;13.22;;
22435;SDS011;11385;50.822;4.324;2024-03-08T02:31:24;22.40;;;12.10;;
22435;SDS011;11385;50.822;4.324;2024-03-08T02:33:52;24.18;;;12.45;;
22435;SDS011;11385;50.822;4.324;2024-03-08T02:36:20;23.25;;;13.00;;
22435;SDS011;11385;50.822;4.324;2024-03-08T02:38:47;26.25;;;12.98;;
22435;SDS011;11385;50.822;4.324;2024-03-08T02:41:14;27.00;;;13.65;;
22435;SDS011;11385;50.822;4.324;2024-03-08T02:43:40;24.82;;;13.00;;
22435;SDS011;11385;50.822;4.324;2024-03-08T02:46:07;21.17;;;11.85;;
22435;SDS011;11385;50.822;4.324;2024-03-08T02:48:33;23.90;;;12.88;;
22435;SDS011;11385;50.822;4.324;2024-03-08T02:51:00;23.27;;;12.65;;
22435;SDS011;11385;50.822;4.324;2024-03-08T02:53:27;20.82;;;12.80;;
22435;SDS011;11385;50.822;4.324;2024-03-08T02:55:54;23.20;;;12.80;;
22435;SDS011;11385;50.822;4.324;2024-03-08T02:58:21;23.87;;;13.45;;
22435;SDS011;11385;50.822;4.324;2024-03-08T03:00:48;25.35;;;12.78;;
22435;SDS011;11385;50.822;4.324;2024-03-08T03:03:15;25.75;;;13.58;;
22435;SDS011;11385;50.822;4.324;2024-03-08T03:05:42;23.38;;;14.00;;
22435;SDS011;11385;50.822;4.324;2024-03-08T03:08:09;24.82;;;13.85;;
22435;SDS011;11385;50.822;4.324;2024-03-08T03:10:37;23.87;;;12.93;;
22435;SDS011;11385;50.822;4.324;2024-03-08T03:13:04;28.00;;;13.80;;
22435;SDS011;11385;50.822;4.324;2024-03-08T03:15:30;25.02;;;14.33;;
22435;SDS011;11385;50.822;4.324;2024-03-08T03:17:57;22.07;;;12.98;;
22435;SDS011;11385;50.822;4.324;2024-03-08T03:20:24;27.60;;;14.10;;
22435;SDS011;11385;50.822;4.324;2024-03-08T03:22:54;25.08;;;14.25;;
22435;SDS011;11385;50.822;4.324;2024-03-08T03:25:22;24.12;;;13.68;;
22435;SDS011;11385;50.822;4.324;2024-03-08T03:27:51;21.62;;;13.78;;
22435;SDS011;11385;50.822;4.324;2024-03-08T03:30:20;24.67;;;14.07;;
22435;SDS011;11385;50.822;4.324;2024-03-08T03:32:48;26.50;;;14.18;;
22435;SDS011;11385;50.822;4.324;2024-03-08T03:35:17;21.05;;;13.30;;
22435;SDS011;11385;50.822;4.324;2024-03-08T03:37:46;22.37;;;13.78;;
22435;SDS011;11385;50.822;4.324;2024-03-08T03:40:19;24.25;;;13.68;;
22435;SDS011;11385;50.822;4.324;2024-03-08T03:42:46;26.97;;;14.50;;
22435;SDS011;11385;50.822;4.324;2024-03-08T03:45:12;27.55;;;15.38;;
22435;SDS011;11385;50.822;4.324;2024-03-08T03:47:42;25.88;;;15.13;;
22435;SDS011;11385;50.822;4.324;2024-03-08T03:50:08;23.45;;;14.25;;
22435;SDS011;11385;50.822;4.324;2024-03-08T03:52:36;24.23;;;14.25;;
22435;SDS011;11385;50.822;4.324;2024-03-08T03:55:03;21.82;;;13.48;;
22435;SDS011;11385;50.822;4.324;2024-03-08T03:57:31;23.98;;;14.40;;
22435;SDS011;11385;50.822;4.324;2024-03-08T03:59:57;25.90;;;14.38;;
22435;SDS011;11385;50.822;4.324;2024-03-08T04:02:25;24.40;;;14.05;;
22435;SDS011;11385;50.822;4.324;2024-03-08T04:04:52;26.70;;;15.93;;
22435;SDS011;11385;50.822;4.324;2024-03-08T04:07:20;25.82;;;14.65;;
22435;SDS011;11385;50.822;4.324;2024-03-08T04:09:47;24.90;;;14.13;;
22435;SDS011;11385;50.822;4.324;2024-03-08T04:12:14;23.92;;;13.95;;
22435;SDS011;11385;50.822;4.324;2024-03-08T04:14:41;23.02;;;13.90;;
22435;SDS011;11385;50.822;4.324;2024-03-08T04:17:11;22.62;;;13.95;;
22435;SDS011;11385;50.822;4.324;2024-03-08T04:19:38;22.48;;;13.60;;
22435;SDS011;11385;50.822;4.324;2024-03-08T04:22:05;23.75;;;13.95;;
22435;SDS011;11385;50.822;4.324;2024-03-08T04:24:33;27.48;;;14.65;;
22435;SDS011;11385;50.822;4.324;2024-03-08T04:27:00;24.23;;;15.08;;
22435;SDS011;11385;50.822;4.324;2024-03-08T04:29:26;26.52;;;14.60;;
22435;SDS011;11385;50.822;4.324;2024-03-08T04:31:53;26.50;;;15.48;;
22435;SDS011;11385;50.822;4.324;2024-03-08T04:34:20;24.37;;;14.53;;
22435;SDS011;11385;50.822;4.324;2024-03-08T04:36:48;27.75;;;14.58;;
22435;SDS011;11385;50.822;4.324;2024-03-08T04:39:14;25.32;;;14.95;;
22435;SDS011;11385;50.822;4.324;2024-03-08T04:41:42;28.92;;;15.35;;
22435;SDS011;11385;50.822;4.324;2024-03-08T04:44:09;25.25;;;14.60;;
22435;SDS011;11385;50.822;4.324;2024-03-08T04:46:38;28.98;;;15.23;;
22435;SDS011;11385;50.822;4.324;2024-03-08T04:49:05;28.83;;;14.95;;
22435;SDS011;11385;50.822;4.324;2024-03-08T04:51:34;27.27;;;15.55;;
22435;SDS011;11385;50.822;4.324;2024-03-08T04:54:00;24.35;;;14.53;;
22435;SDS011;11385;50.822;4.324;2024-03-08T04:56:27;26.37;;;14.80;;
22435;SDS011;11385;50.822;4.324;2024-03-08T04:58:53;30.05;;;16.60;;
22435;SDS011;11385;50.822;4.324;2024-03-08T05:01:20;24.92;;;15.18;;
22435;SDS011;11385;50.822;4.324;2024-03-08T05:03:47;25.10;;;15.13;;
22435;SDS011;11385;50.822;4.324;2024-03-08T05:06:16;27.32;;;15.25;;
22435;SDS011;11385;50.822;4.324;2024-03-08T05:08:42;25.32;;;14.40;;
22435;SDS011;11385;50.822;4.324;2024-03-08T05:11:09;25.20;;;14.25;;
22435;SDS011;11385;50.822;4.324;2024-03-08T05:13:36;30.10;;;14.50;;
22435;SDS011;11385;50.822;4.324;2024-03-08T05:16:03;22.22;;;13.28;;
22435;SDS011;11385;50.822;4.324;2024-03-08T05:18:30;26.68;;;14.87;;
22435;SDS011;11385;50.822;4.324;2024-03-08T05:20:58;26.57;;;14.47;;
22435;SDS011;11385;50.822;4.324;2024-03-08T05:23:24;24.27;;;14.47;;
22435;SDS011;11385;50.822;4.324;2024-03-08T05:25:52;33.00;;;15.43;;
22435;SDS011;11385;50.822;4.324;2024-03-08T05:28:19;21.77;;;13.83;;
22435;SDS011;11385;50.822;4.324;2024-03-08T05:30:46;26.23;;;14.98;;
22435;SDS011;11385;50.822;4.324;2024-03-08T05:33:12;28.00;;;15.72;;
22435;SDS011;11385;50.822;4.324;2024-03-08T05:35:40;24.60;;;14.63;;
22435;SDS011;11385;50.822;4.324;2024-03-08T05:38:06;27.50;;;14.38;;
22435;SDS011;11385;50.822;4.324;2024-03-08T05:40:33;27.58;;;14.45;;
22435;SDS011;11385;50.822;4.324;2024-03-08T05:43:00;25.92;;;14.55;;
22435;SDS011;11385;50.822;4.324;2024-03-08T05:45:27;28.67;;;16.27;;
22435;SDS011;11385;50.822;4.324;2024-03-08T05:47:53;24.40;;;13.53;;
22435;SDS011;11385;50.822;4.324;2024-03-08T05:50:20;27.07;;;14.73;;
22435;SDS011;11385;50.822;4.324;2024-03-08T05:52:47;26.05;;;14.95;;
22435;SDS011;11385;50.822;4.324;2024-03-08T05:55:15;26.52;;;14.13;;
22435;SDS011;11385;50.822;4.324;2024-03-08T05:57:42;29.05;;;15.80;;
22435;SDS011;11385;50.822;4.324;2024-03-08T06:00:09;28.47;;;14.78;;
22435;SDS011;11385;50.822;4.324;2024-03-08T06:02:37;25.55;;;14.45;;
22435;SDS011;11385;50.822;4.324;2024-03-08T06:05:08;25.85;;;14.07;;
22435;SDS011;11385;50.822;4.324;2024-03-08T06:07:36;29.92;;;15.38;;
22435;SDS011;11385;50.822;4.324;2024-03-08T06:10:08;23.07;;;13.22;;
22435;SDS011;11385;50.822;4.324;2024-03-08T06:12:36;29.03;;;15.77;;
22435;SDS011;11385;50.822;4.324;2024-03-08T06:15:05;24.67;;;13.50;;
22435;SDS011;11385;50.822;4.324;2024-03-08T06:17:32;29.18;;;14.98;;
22435;SDS011;11385;50.822;4.324;2024-03-08T06:19:59;26.02;;;14.80;;
22435;SDS011;11385;50.822;4.324;2024-03-08T06:22:27;24.23;;;14.10;;
22435;SDS011;11385;50.822;4.324;2024-03-08T06:24:56;26.60;;;14.20;;
22435;SDS011;11385;50.822;4.324;2024-03-08T06:27:22;28.05;;;15.58;;
22435;SDS011;11385;50.822;4.324;2024-03-08T06:29:50;27.17;;;15.00;;
22435;SDS011;11385;50.822;4.324;2024-03-08T06:32:16;26.15;;;14.75;;
22435;SDS011;11385;50.822;4.324;2024-03-08T06:34:44;27.80;;;14.73;;
22435;SDS011;11385;50.822;4.324;2024-03-08T06:37:11;26.20;;;13.60;;
22435;SDS011;11385;50.822;4.324;2024-03-08T06:39:37;25.65;;;14.87;;
22435;SDS011;11385;50.822;4.324;2024-03-08T06:42:04;28.10;;;14.87;;
22435;SDS011;11385;50.822;4.324;2024-03-08T06:44:31;26.45;;;14.10;;
22435;SDS011;11385;50.822;4.324;2024-03-08T06:46:58;26.95;;;14.33;;
22435;SDS011;11385;50.822;4.324;2024-03-08T06:49:26;27.75;;;14.53;;
22435;SDS011;11385;50.822;4.324;2024-03-08T06:51:52;27.50;;;15.25;;
22435;SDS011;11385;50.822;4.324;2024-03-08T06:54:19;21.52;;;13.62;;
22435;SDS011;11385;50.822;4.324;2024-03-08T06:56:45;27.22;;;13.98;;
22435;SDS011;11385;50.822;4.324;2024-03-08T06:59:13;25.30;;;13.78;;
22435;SDS011;11385;50.822;4.324;2024-03-08T07:01:40;26.05;;;14.63;;
22435;SDS011;11385;50.822;4.324;2024-03-08T07:04:07;27.60;;;15.18;;
22435;SDS011;11385;50.822;4.324;2024-03-08T07:06:33;28.55;;;14.55;;
22435;SDS011;11385;50.822;4.324;2024-03-08T07:09:00;26.25;;;14.25;;
22435;SDS011;11385;50.822;4.324;2024-03-08T07:11:27;30.10;;;17.12;;
22435;SDS011;11385;50.822;4.324;2024-03-08T07:13:54;27.20;;;14.75;;
22435;SDS011;11385;50.822;4.324;2024-03-08T07:16:21;25.90;;;14.47;;
22435;SDS011;11385;50.822;4.324;2024-03-08T07:18:47;25.60;;;15.10;;
22435;SDS011;11385;50.822;4.324;2024-03-08T07:21:16;26.68;;;13.75;;
22435;SDS011;11385;50.822;4.324;2024-03-08T07:23:43;23.90;;;13.48;;
22435;SDS011;11385;50.822;4.324;2024-03-08T07:26:15;26.57;;;14.90;;
22435;SDS011;11385;50.822;4.324;2024-03-08T07:28:42;25.67;;;13.70;;
22435;SDS011;11385;50.822;4.324;2024-03-08T07:31:09;27.87;;;13.43;;
22435;SDS011;11385;50.822;4.324;2024-03-08T07:36:07;28.98;;;14.87;;
22435;SDS011;11385;50.822;4.324;2024-03-08T07:38:34;29.35;;;14.55;;
22435;SDS011;11385;50.822;4.324;2024-03-08T07:41:00;22.13;;;12.85;;
22435;SDS011;11385;50.822;4.324;2024-03-08T07:43:27;25.57;;;13.60;;
22435;SDS011;11385;50.822;4.324;2024-03-08T07:45:54;26.25;;;14.60;;
22435;SDS011;11385;50.822;4.324;2024-03-08T07:48:20;25.02;;;15.20;;
22435;SDS011;11385;50.822;4.324;2024-03-08T07:50:47;25.92;;;14.15;;
22435;SDS011;11385;50.822;4.324;2024-03-08T07:53:15;26.37;;;14.30;;
22435;SDS011;11385;50.822;4.324;2024-03-08T07:55:42;32.05;;;14.85;;
22435;SDS011;11385;50.822;4.324;2024-03-08T07:58:10;29.23;;;14.63;;
22435;SDS011;11385;50.822;4.324;2024-03-08T08:00:37;26.68;;;14.43;;
22435;SDS011;11385;50.822;4.324;2024-03-08T08:03:04;23.12;;;13.00;;
22435;SDS011;11385;50.822;4.324;2024-03-08T08:05:32;30.43;;;17.40;;
22435;SDS011;11385;50.822;4.324;2024-03-08T08:08:02;28.00;;;14.65;;
22435;SDS011;11385;50.822;4.324;2024-03-08T08:10:32;23.15;;;13.62;;
22435;SDS011;11385;50.822;4.324;2024-03-08T08:12:59;26.00;;;13.95;;
22435;SDS011;11385;50.822;4.324;2024-03-08T08:15:25;25.60;;;14.25;;
22435;SDS011;11385;50.822;4.324;2024-03-08T08:17:54;24.23;;;13.18;;
22435;SDS011;11385;50.822;4.324;2024-03-08T08:20:20;25.37;;;13.18;;
22435;SDS011;11385;50.822;4.324;2024-03-08T08:22:48;27.67;;;13.65;;
22435;SDS011;11385;50.822;4.324;2024-03-08T08:25:15;24.70;;;13.65;;
22435;SDS011;11385;50.822;4.324;2024-03-08T08:27:44;24.72;;;14.35;;
22435;SDS011;11385;50.822;4.324;2024-03-08T08:30:11;26.52;;;14.78;;
22435;SDS011;11385;50.822;4.324;2024-03-08T08:33:06;26.20;;;14.77;;
22435;SDS011;11385;50.822;4.324;2024-03-08T08:35:42;24.87;;;13.72;;
22435;SDS011;11385;50.822;4.324;2024-03-08T08:38:19;24.98;;;13.72;;
22435;SDS011;11385;50.822;4.324;2024-03-08T08:40:47;27.42;;;13.85;;
22435;SDS011;11385;50.822;4.324;2024-03-08T08:43:14;24.27;;;13.28;;
22435;SDS011;11385;50.822;4.324;2024-03-08T08:45:40;21.85;;;13.22;;
22435;SDS011;11385;50.822;4.324;2024-03-08T08:48:08;23.42;;;13.58;;
22435;SDS011;11385;50.822;4.324;2024-03-08T08:50:36;20.57;;;12.75;;
22435;SDS011;11385;50.822;4.324;2024-03-08T08:53:04;23.83;;;11.95;;
22435;SDS011;11385;50.822;4.324;2024-03-08T08:55:32;26.55;;;13.48;;
22435;SDS011;11385;50.822;4.324;2024-03-08T08:58:01;21.70;;;13.18;;
22435;SDS011;11385;50.822;4.324;2024-03-08T09:00:28;22.58;;;12.28;;
22435;SDS011;11385;50.822;4.324;2024-03-08T09:02:56;23.85;;;13.53;;
22435;SDS011;11385;50.822;4.324;2024-03-08T09:05:23;23.20;;;13.38;;
22435;SDS011;11385;50.822;4.324;2024-03-08T09:07:50;20.88;;;12.60;;
22435;SDS011;11385;50.822;4.324;2024-03-08T09:10:17;24.35;;;12.85;;
22435;SDS011;11385;50.822;4.324;2024-03-08T09:12:44;23.05;;;12.58;;
22435;SDS011;11385;50.822;4.324;2024-03-08T09:15:11;25.68;;;13.30;;
22435;SDS011;11385;50.822;4.324;2024-03-08T09:17:38;21.45;;;12.43;;
22435;SDS011;11385;50.822;4.324;2024-03-08T09:20:07;21.93;;;12.40;;
22435;SDS011;11385;50.822;4.324;2024-03-08T09:22:35;22.93;;;12.40;;
22435;SDS011;11385;50.822;4.324;2024-03-08T09:25:01;22.02;;;12.33;;
22435;SDS011;11385;50.822;4.324;2024-03-08T09:27:30;19.67;;;11.48;;
22435;SDS011;11385;50.822;4.324;2024-03-08T09:29:57;18.87;;;11.63;;
22435;SDS011;11385;50.822;4.324;2024-03-08T09:32:23;18.92;;;11.90;;
22435;SDS011;11385;50.822;4.324;2024-03-08T09:34:50;21.60;;;11.63;;
22435;SDS011;11385;50.822;4.324;2024-03-08T09:37:17;22.65;;;11.78;;
22435;SDS011;11385;50.822;4.324;2024-03-08T09:39:44;24.05;;;11.63;;
22435;SDS011;11385;50.822;4.324;2024-03-08T09:42:11;22.73;;;12.35;;
22435;SDS011;11385;50.822;4.324;2024-03-08T09:44:45;20.85;;;11.53;;
22435;SDS011;11385;50.822;4.324;2024-03-08T09:47:13;21.70;;;11.75;;
22435;SDS011;11385;50.822;4.324;2024-03-08T09:49:41;20.30;;;11.70;;
22435;SDS011;11385;50.822;4.324;2024-03-08T09:52:09;21.93;;;11.68;;
22435;SDS011;11385;50.822;4.324;2024-03-08T09:54:37;19.25;;;11.55;;
22435;SDS011;11385;50.822;4.324;2024-03-08T09:57:05;22.22;;;11.48;;
22435;SDS011;11385;50.822;4.324;2024-03-08T09:59:35;20.05;;;11.22;;
22435;SDS011;11385;50.822;4.324;2024-03-08T10:02:13;22.30;;;11.55;;
22435;SDS011;11385;50.822;4.324;2024-03-08T10:04:41;20.23;;;11.05;;
22435;SDS011;11385;50.822;4.324;2024-03-08T10:07:08;22.73;;;12.07;;
22435;SDS011;11385;50.822;4.324;2024-03-08T10:09:35;19.20;;;11.68;;
22435;SDS011;11385;50.822;4.324;2024-03-08T10:12:03;23.40;;;12.28;;
22435;SDS011;11385;50.822;4.324;2024-03-08T10:14:31;21.60;;;11.33;;
22435;SDS011;11385;50.822;4.324;2024-03-08T10:16:58;18.95;;;10.85;;
22435;SDS011;11385;50.822;4.324;2024-03-08T10:19:26;21.42;;;11.65;;
22435;SDS011;11385;50.822;4.324;2024-03-08T10:21:55;20.62;;;11.90;;
22435;SDS011;11385;50.822;4.324;2024-03-08T10:24:24;23.27;;;11.53;;
22435;SDS011;11385;50.822;4.324;2024-03-08T10:26:53;20.82;;;11.70;;
22435;SDS011;11385;50.822;4.324;2024-03-08T10:29:22;20.32;;;11.40;;
22435;SDS011;11385;50.822;4.324;2024-03-08T10:31:49;18.75;;;11.20;;
22435;SDS011;11385;50.822;4.324;2024-03-08T10:34:17;19.67;;;11.68;;
22435;SDS011;11385;50.822;4.324;2024-03-08T10:36:45;20.37;;;11.30;;
22435;SDS011;11385;50.822;4.324;2024-03-08T10:39:21;19.70;;;10.40;;
22435;SDS011;11385;50.822;4.324;2024-03-08T10:41:53;19.82;;;11.03;;
22435;SDS011;11385;50.822;4.324;2024-03-08T10:44:37;19.15;;;11.00;;
22435;SDS011;11385;50.822;4.324;2024-03-08T10:47:17;21.35;;;12.05;;
22435;SDS011;11385;50.822;4.324;2024-03-08T10:49:54;17.62;;;11.08;;
22435;SDS011;11385;50.822;4.324;2024-03-08T10:52:32;23.12;;;11.97;;
22435;SDS011;11385;50.822;4.324;2024-03-08T10:55:01;18.12;;;10.90;;
22435;SDS011;11385;50.822;4.324;2024-03-08T10:57:29;20.30;;;12.10;;
22435;SDS011;11385;50.822;4.324;2024-03-08T10:59:57;19.42;;;10.68;;
22435;SDS011;11385;50.822;4.324;2024-03-08T11:02:25;20.80;;;11.20;;
22435;SDS011;11385;50.822;4.324;2024-03-08T11:04:53;17.82;;;11.15;;
22435;SDS011;11385;50.822;4.324;2024-03-08T11:07:22;20.35;;;11.70;;
22435;SDS011;11385;50.822;4.324;2024-03-08T11:09:53;17.98;;;11.53;;
22435;SDS011;11385;50.822;4.324;2024-03-08T11:12:22;21.60;;;11.83;;
22435;SDS011;11385;50.822;4.324;2024-03-08T11:14:54;18.15;;;10.55;;
22435;SDS011;11385;50.822;4.324;2024-03-08T11:17:25;19.42;;;11.20;;
22435;SDS011;11385;50.822;4.324;2024-03-08T11:19:56;19.35;;;12.07;;
22435;SDS011;11385;50.822;4.324;2024-03-08T11:22:29;20.02;;;11.03;;
22435;SDS011;11385;50.822;4.324;2024-03-08T11:24:58;20.35;;;10.72;;
22435;SDS011;11385;50.822;4.324;2024-03-08T11:27:31;17.12;;;10.38;;
22435;SDS011;11385;50.822;4.324;2024-03-08T11:29:59;22.73;;;13.15;;
22435;SDS011;11385;50.822;4.324;2024-03-08T11:32:33;16.32;;;10.72;;
22435;SDS011;11385;50.822;4.324;2024-03-08T11:35:03;19.10;;;10.68;;
22435;SDS011;11385;50.822;4.324;2024-03-08T11:37:33;19.60;;;11.37;;
22435;SDS011;11385;50.822;4.324;2024-03-08T11:40:01;18.35;;;11.03;;
22435;SDS011;11385;50.822;4.324;2024-03-08T11:42:31;18.57;;;10.63;;
22435;SDS011;11385;50.822;4.324;2024-03-08T11:45:07;19.48;;;11.12;;
22435;SDS011;11385;50.822;4.324;2024-03-08T11:47:41;17.20;;;10.50;;
22435;SDS011;11385;50.822;4.324;2024-03-08T11:50:11;19.75;;;11.03;;
22435;SDS011;11385;50.822;4.324;2024-03-08T11:52:38;21.05;;;11.80;;
22435;SDS011;11385;50.822;4.324;2024-03-08T11:55:05;18.77;;;10.82;;
22435;SDS011;11385;50.822;4.324;2024-03-08T11:57:34;20.52;;;10.88;;
22435;SDS011;11385;50.822;4.324;2024-03-08T12:00:04;17.73;;;10.72;;
22435;SDS011;11385;50.822;4.324;2024-03-08T12:02:33;19.85;;;11.35;;
22435;SDS011;11385;50.822;4.324;2024-03-08T12:05:03;19.17;;;10.45;;
22435;SDS011;11385;50.822;4.324;2024-03-08T12:07:34;18.87;;;10.10;;
22435;SDS011;11385;50.822;4.324;2024-03-08T12:12:43;16.35;;;9.60;;
22435;SDS011;11385;50.822;4.324;2024-03-08T12:15:13;19.00;;;10.20;;
22435;SDS011;11385;50.822;4.324;2024-03-08T12:17:41;18.02;;;10.10;;
22435;SDS011;11385;50.822;4.324;2024-03-08T12:20:13;16.75;;;10.10;;
22435;SDS011;11385;50.822;4.324;2024-03-08T12:22:43;17.60;;;10.20;;
22435;SDS011;11385;50.822;4.324;2024-03-08T12:25:11;16.55;;;9.63;;
22435;SDS011;11385;50.822;4.324;2024-03-08T12:27:38;15.93;;;9.90;;
22435;SDS011;11385;50.822;4.324;2024-03-08T12:32:46;19.27;;;10.40;;
22435;SDS011;11385;50.822;4.324;2024-03-08T12:35:21;16.90;;;10.15;;
22435;SDS011;11385;50.822;4.324;2024-03-08T12:37:48;15.83;;;9.33;;
22435;SDS011;11385;50.822;4.324;2024-03-08T12:40:25;17.65;;;9.85;;
22435;SDS011;11385;50.822;4.324;2024-03-08T12:42:54;16.10;;;9.70;;
22435;SDS011;11385;50.822;4.324;2024-03-08T12:45:22;15.93;;;9.63;;
22435;SDS011;11385;50.822;4.324;2024-03-08T12:47:51;18.30;;;9.75;;
22435;SDS011;11385;50.822;4.324;2024-03-08T12:50:20;15.23;;;9.10;;
22435;SDS011;11385;50.822;4.324;2024-03-08T12:52:48;20.17;;;9.88;;
22435;SDS011;11385;50.822;4.324;2024-03-08T12:55:15;17.90;;;9.38;;
22435;SDS011;11385;50.822;4.324;2024-03-08T12:57:44;15.85;;;9.25;;
22435;SDS011;11385;50.822;4.324;2024-03-08T13:00:12;16.12;;;8.45;;
22435;SDS011;11385;50.822;4.324;2024-03-08T13:02:41;19.15;;;10.20;;
22435;SDS011;11385;50.822;4.324;2024-03-08T13:05:11;17.42;;;10.03;;
22435;SDS011;11385;50.822;4.324;2024-03-08T13:07:40;18.92;;;9.63;;
22435;SDS011;11385;50.822;4.324;2024-03-08T13:10:09;19.07;;;9.93;;
22435;SDS011;11385;50.822;4.324;2024-03-08T13:12:38;18.52;;;9.53;;
22435;SDS011;11385;50.822;4.324;2024-03-08T13:15:05;17.35;;;8.75;;
22435;SDS011;11385;50.822;4.324;2024-03-08T13:17:34;16.20;;;9.43;;
22435;SDS011;11385;50.822;4.324;2024-03-08T13:20:01;12.95;;;8.88;;
22435;SDS011;11385;50.822;4.324;2024-03-08T13:22:30;16.57;;;9.90;;
22435;SDS011;11385;50.822;4.324;2024-03-08T13:24:56;15.00;;;8.65;;
22435;SDS011;11385;50.822;4.324;2024-03-08T13:27:27;17.55;;;9.50;;
22435;SDS011;11385;50.822;4.324;2024-03-08T13:29:55;18.20;;;9.50;;
22435;SDS011;11385;50.822;4.324;2024-03-08T13:32:24;15.88;;;9.45;;
22435;SDS011;11385;50.822;4.324;2024-03-08T13:34:52;16.55;;;9.65;;
22435;SDS011;11385;50.822;4.324;2024-03-08T13:37:20;18.27;;;10.08;;
22435;SDS011;11385;50.822;4.324;2024-03-08T13:39:47;16.02;;;9.38;;
22435;SDS011;11385;50.822;4.324;2024-03-08T13:42:15;15.60;;;9.70;;
22435;SDS011;11385;50.822;4.324;2024-03-08T13:44:45;15.75;;;9.30;;
22435;SDS011;11385;50.822;4.324;2024-03-08T13:47:15;14.95;;;9.10;;
22435;SDS011;11385;50.822;4.324;2024-03-08T13:49:43;19.02;;;9.30;;
22435;SDS011;11385;50.822;4.324;2024-03-08T13:52:10;17.10;;;9.58;;
22435;SDS011;11385;50.822;4.324;2024-03-08T13:54:38;16.40;;;8.90;;
22435;SDS011;11385;50.822;4.324;2024-03-08T13:57:05;17.92;;;10.30;;
22435;SDS011;11385;50.822;4.324;2024-03-08T13:59:33;16.37;;;9.35;;
22435;SDS011;11385;50.822;4.324;2024-03-08T14:02:01;17.82;;;10.20;;
22435;SDS011;11385;50.822;4.324;2024-03-08T14:04:28;15.68;;;8.33;;
22435;SDS011;11385;50.822;4.324;2024-03-08T14:06:55;15.72;;;9.30;;
22435;SDS011;11385;50.822;4.324;2024-03-08T14:09:25;15.95;;;9.73;;
22435;SDS011;11385;50.822;4.324;2024-03-08T14:11:55;15.35;;;9.50;;
22435;SDS011;11385;50.822;4.324;2024-03-08T14:14:22;15.35;;;9.38;;
22435;SDS011;11385;50.822;4.324;2024-03-08T14:16:50;16.93;;;8.70;;
22435;SDS011;11385;50.822;4.324;2024-03-08T14:19:19;18.07;;;9.38;;
22435;SDS011;11385;50.822;4.324;2024-03-08T14:21:47;14.10;;;8.60;;
22435;SDS011;11385;50.822;4.324;2024-03-08T14:24:15;15.60;;;8.85;;
22435;SDS011;11385;50.822;4.324;2024-03-08T14:26:42;16.07;;;8.78;;
22435;SDS011;11385;50.822;4.324;2024-03-08T14:29:09;16.57;;;9.03;;
22435;SDS011;11385;50.822;4.324;2024-03-08T14:31:36;17.62;;;8.70;;
22435;SDS011;11385;50.822;4.324;2024-03-08T14:34:03;16.77;;;8.83;;
22435;SDS011;11385;50.822;4.324;2024-03-08T14:36:30;16.85;;;9.55;;